createdAt,value
2018-09-22T00:00:00.602Z,3.00
2018-09-22T00:01:00.558Z,2.30
2018-09-22T00:02:00.525Z,2.70
2018-09-22T00:03:00.497Z,2.40
2018-09-22T00:04:00.461Z,2.90
2018-09-22T00:05:00.436Z,2.40
2018-09-22T00:06:00.395Z,3.10
2018-09-22T00:07:00.362Z,3.00
2018-09-22T00:08:00.332Z,2.60
2018-09-22T00:09:00.300Z,3.00
2018-09-22T00:10:00.281Z,2.30
2018-09-22T00:11:00.229Z,2.60
2018-09-22T00:12:00.233Z,2.20
2018-09-22T00:13:00.165Z,2.20
2018-09-22T00:14:00.138Z,2.60
2018-09-22T00:15:00.109Z,2.40
2018-09-22T00:16:00.067Z,2.30
2018-09-22T00:17:00.033Z,2.50
2018-09-22T00:18:00.002Z,2.40
2018-09-22T00:18:59.976Z,2.50
2018-09-22T00:19:59.949Z,2.50
2018-09-22T00:20:59.932Z,3.60
2018-09-22T00:22:00.012Z,2.40
2018-09-22T00:22:59.838Z,2.20
2018-09-22T00:23:59.811Z,2.60
2018-09-22T00:24:59.787Z,2.60
2018-09-22T00:25:59.739Z,2.50
2018-09-22T00:26:59.712Z,2.40
2018-09-22T00:27:59.675Z,3.40
2018-09-22T00:28:59.640Z,2.40
2018-09-22T00:29:59.626Z,3.00
2018-09-22T00:30:59.581Z,2.60
2018-09-22T00:31:59.568Z,2.90
2018-09-22T00:32:59.517Z,2.70
2018-09-22T00:33:59.474Z,2.50
2018-09-22T00:34:59.441Z,2.90
2018-09-22T00:35:59.424Z,2.80
2018-09-22T00:36:59.384Z,2.20
2018-09-22T00:37:59.351Z,3.00
2018-09-22T00:38:59.317Z,2.70
2018-09-22T00:39:59.276Z,2.70
2018-09-22T00:40:59.256Z,2.60
2018-09-22T00:41:59.218Z,2.90
2018-09-22T00:42:59.177Z,2.90
2018-09-22T00:43:59.145Z,2.80
2018-09-22T00:44:59.112Z,3.20
2018-09-22T00:45:59.088Z,2.00
2018-09-22T00:46:59.045Z,2.60
2018-09-22T00:47:59.013Z,2.80
2018-09-22T00:48:58.983Z,2.90
2018-09-22T00:49:58.945Z,2.70
2018-09-22T00:50:58.920Z,2.90
2018-09-22T00:51:58.879Z,3.20
2018-09-22T00:52:58.849Z,3.40
2018-09-22T00:53:58.817Z,3.00
2018-09-22T00:54:58.791Z,2.70
2018-09-22T00:55:58.758Z,2.70
2018-09-22T00:56:58.714Z,3.00
2018-09-22T00:57:58.682Z,2.30
2018-09-22T00:58:58.647Z,3.20
2018-09-22T00:59:58.619Z,2.40
2018-09-22T01:00:58.592Z,2.80
2018-09-22T01:01:58.551Z,2.50
2018-09-22T01:02:58.516Z,2.90
2018-09-22T01:03:58.488Z,2.30
2018-09-22T01:04:58.449Z,2.80
2018-09-22T01:05:58.432Z,2.70
2018-09-22T01:06:58.384Z,3.00
2018-09-22T01:07:58.355Z,2.50
2018-09-22T01:08:58.318Z,2.50
2018-09-22T01:09:58.285Z,2.70
2018-09-22T01:10:58.280Z,2.60
2018-09-22T01:11:58.221Z,3.00
2018-09-22T01:12:58.187Z,2.70
2018-09-22T01:13:58.152Z,3.10
2018-09-22T01:14:58.121Z,2.40
2018-09-22T01:15:58.123Z,2.70
2018-09-22T01:16:58.060Z,3.00
2018-09-22T01:17:58.019Z,2.00
2018-09-22T01:18:57.989Z,2.40
2018-09-22T01:19:57.955Z,2.80
2018-09-22T01:20:57.921Z,2.70
2018-09-22T01:21:57.895Z,2.60
2018-09-22T01:22:57.853Z,2.50
2018-09-22T01:23:57.821Z,2.10
2018-09-22T01:24:57.786Z,2.70
2018-09-22T01:25:57.753Z,3.10
2018-09-22T01:26:57.731Z,2.70
2018-09-22T01:27:57.701Z,2.30
2018-09-22T01:28:57.657Z,2.30
2018-09-22T01:29:57.623Z,2.30
2018-09-22T01:30:57.589Z,2.90
2018-09-22T01:31:57.581Z,3.60
2018-09-22T01:32:57.522Z,2.70
2018-09-22T01:33:57.490Z,3.40
2018-09-22T01:34:57.457Z,3.80
2018-09-22T01:35:57.424Z,3.40
2018-09-22T01:36:57.392Z,3.90
2018-09-22T01:37:57.362Z,3.20
2018-09-22T01:38:57.323Z,2.80
2018-09-22T01:39:57.293Z,3.20
2018-09-22T01:40:57.256Z,3.30
2018-09-22T01:41:57.224Z,3.20
2018-09-22T01:42:57.200Z,3.40
2018-09-22T01:43:57.157Z,3.00
2018-09-22T01:44:57.125Z,3.80
2018-09-22T01:45:57.090Z,2.80
2018-09-22T01:46:57.060Z,2.80
2018-09-22T01:47:57.041Z,2.60
2018-09-22T01:48:56.993Z,3.00
2018-09-22T01:49:56.957Z,3.20
2018-09-22T01:50:56.922Z,2.60
2018-09-22T01:51:56.892Z,3.70
2018-09-22T01:52:56.866Z,2.40
2018-09-22T01:53:56.825Z,2.90
2018-09-22T01:54:56.791Z,2.90
2018-09-22T01:55:56.770Z,3.80
2018-09-22T01:56:56.726Z,2.50
2018-09-22T01:57:56.701Z,3.00
2018-09-22T01:58:56.658Z,3.90
2018-09-22T01:59:56.630Z,3.10
2018-09-22T02:00:56.601Z,3.10
2018-09-22T02:01:56.560Z,2.60
2018-09-22T02:02:56.534Z,2.90
2018-09-22T02:03:56.505Z,3.00
2018-09-22T02:04:56.458Z,2.80
2018-09-22T02:05:56.424Z,2.40
2018-09-22T02:06:56.395Z,2.90
2018-09-22T02:07:56.382Z,3.10
2018-09-22T02:08:56.327Z,2.80
2018-09-22T02:09:56.292Z,3.60
2018-09-22T02:10:56.258Z,2.90
2018-09-22T02:11:56.226Z,2.60
2018-09-22T02:12:56.193Z,2.40
2018-09-22T02:13:56.176Z,2.60
2018-09-22T02:14:56.125Z,2.20
2018-09-22T02:15:56.094Z,3.50
2018-09-22T02:16:56.058Z,3.00
2018-09-22T02:17:56.028Z,2.70
2018-09-22T02:18:56.007Z,2.60
2018-09-22T02:19:55.966Z,2.50
2018-09-22T02:20:55.924Z,2.80
2018-09-22T02:21:55.891Z,3.00
2018-09-22T02:22:55.859Z,2.30
2018-09-22T02:23:55.835Z,2.50
2018-09-22T02:24:55.795Z,2.90
2018-09-22T02:25:55.758Z,2.60
2018-09-22T02:26:55.729Z,2.70
2018-09-22T02:27:55.693Z,3.10
2018-09-22T02:28:55.667Z,2.20
2018-09-22T02:29:55.629Z,3.40
2018-09-22T02:30:55.593Z,2.60
2018-09-22T02:31:55.558Z,2.70
2018-09-22T02:32:55.527Z,2.30
2018-09-22T02:33:55.505Z,2.50
2018-09-22T02:34:55.457Z,1.80
2018-09-22T02:35:55.425Z,2.70
2018-09-22T02:36:55.391Z,3.00
2018-09-22T02:37:55.359Z,2.10
2018-09-22T02:38:55.327Z,3.40
2018-09-22T02:39:55.297Z,2.90
2018-09-22T02:40:55.255Z,2.40
2018-09-22T02:41:55.232Z,2.60
2018-09-22T02:42:55.190Z,2.70
2018-09-22T02:43:55.158Z,2.60
2018-09-22T02:44:55.135Z,3.10
2018-09-22T02:45:55.094Z,2.50
2018-09-22T02:46:55.055Z,2.70
2018-09-22T02:47:55.031Z,2.70
2018-09-22T02:48:54.997Z,2.70
2018-09-22T02:49:54.966Z,2.80
2018-09-22T02:50:54.924Z,2.80
2018-09-22T02:51:54.890Z,2.60
2018-09-22T02:52:54.858Z,2.70
2018-09-22T02:53:54.821Z,2.70
2018-09-22T02:54:54.864Z,2.40
2018-09-22T02:55:54.763Z,3.00
2018-09-22T02:56:54.721Z,2.90
2018-09-22T02:57:54.687Z,2.90
2018-09-22T02:58:54.652Z,2.50
2018-09-22T02:59:54.630Z,2.70
2018-09-22T03:00:54.589Z,2.70
2018-09-22T03:01:54.556Z,3.20
2018-09-22T03:02:54.522Z,2.60
2018-09-22T03:03:54.487Z,2.90
2018-09-22T03:04:54.463Z,3.50
2018-09-22T03:05:54.425Z,4.40
2018-09-22T03:06:54.440Z,2.90
2018-09-22T03:07:54.352Z,3.10
2018-09-22T03:08:54.343Z,3.50
2018-09-22T03:09:54.292Z,3.70
2018-09-22T03:10:54.251Z,3.00
2018-09-22T03:11:54.228Z,3.40
2018-09-22T03:12:54.189Z,3.70
2018-09-22T03:13:54.156Z,3.30
2018-09-22T03:14:54.539Z,3.50
2018-09-22T03:15:54.091Z,3.80
2018-09-22T03:16:54.053Z,3.60
2018-09-22T03:17:54.021Z,4.20
2018-09-22T03:18:53.986Z,4.10
2018-09-22T03:19:53.951Z,3.90
2018-09-22T03:20:53.928Z,4.10
2018-09-22T03:21:53.882Z,3.60
2018-09-22T03:22:53.850Z,4.80
2018-09-22T03:23:53.816Z,4.40
2018-09-22T03:24:53.784Z,5.50
2018-09-22T03:25:53.756Z,4.50
2018-09-22T03:26:53.714Z,4.30
2018-09-22T03:27:53.678Z,5.20
2018-09-22T03:28:53.645Z,3.80
2018-09-22T03:29:53.660Z,4.70
2018-09-22T03:30:53.592Z,4.60
2018-09-22T03:31:53.546Z,5.40
2018-09-22T03:32:53.513Z,4.60
2018-09-22T03:33:53.478Z,4.40
2018-09-22T03:34:53.447Z,4.50
2018-09-22T03:35:53.424Z,5.30
2018-09-22T03:36:53.387Z,4.90
2018-09-22T03:37:53.344Z,5.50
2018-09-22T03:38:53.317Z,4.50
2018-09-22T03:39:53.284Z,4.60
2018-09-22T03:40:53.268Z,4.60
2018-09-22T03:41:53.216Z,4.20
2018-09-22T03:42:53.177Z,4.00
2018-09-22T03:43:53.144Z,5.40
2018-09-22T03:44:53.111Z,4.60
2018-09-22T03:45:53.272Z,4.90
2018-09-22T03:46:53.052Z,4.90
2018-09-22T03:47:53.009Z,4.50
2018-09-22T03:48:52.975Z,4.60
2018-09-22T03:49:52.939Z,4.20
2018-09-22T03:50:52.907Z,4.80
2018-09-22T03:51:52.882Z,6.90
2018-09-22T03:52:52.840Z,4.90
2018-09-22T03:53:52.805Z,4.40
2018-09-22T03:54:52.774Z,5.10
2018-09-22T03:55:52.739Z,4.90
2018-09-22T03:56:52.714Z,6.00
2018-09-22T03:57:52.672Z,4.80
2018-09-22T03:58:52.638Z,5.80
2018-09-22T03:59:52.604Z,5.20
2018-09-22T04:00:52.571Z,4.80
2018-09-22T04:01:52.550Z,5.30
2018-09-22T04:02:52.514Z,5.10
2018-09-22T04:03:52.475Z,6.30
2018-09-22T04:04:52.438Z,5.60
2018-09-22T04:05:52.401Z,4.90
2018-09-22T04:06:52.377Z,5.70
2018-09-22T04:07:52.344Z,5.40
2018-09-22T04:08:52.301Z,4.40
2018-09-22T04:09:52.269Z,4.30
2018-09-22T04:10:52.234Z,4.70
2018-09-22T04:11:52.212Z,4.30
2018-09-22T04:12:52.171Z,4.60
2018-09-22T04:13:52.138Z,5.30
2018-09-22T04:14:52.099Z,4.30
2018-09-22T04:15:52.066Z,5.00
2018-09-22T04:16:52.058Z,4.50
2018-09-22T04:17:52.002Z,4.30
2018-09-22T04:18:51.966Z,4.80
2018-09-22T04:19:51.932Z,4.30
2018-09-22T04:20:51.900Z,4.40
2018-09-22T04:21:51.867Z,4.30
2018-09-22T04:22:51.843Z,3.90
2018-09-22T04:23:51.796Z,4.70
2018-09-22T04:24:51.764Z,3.40
2018-09-22T04:25:51.728Z,5.00
2018-09-22T04:26:51.695Z,4.30
2018-09-22T04:27:51.676Z,4.60
2018-09-22T04:28:51.623Z,4.50
2018-09-22T04:29:51.597Z,3.90
2018-09-22T04:30:51.561Z,4.20
2018-09-22T04:31:51.530Z,4.50
2018-09-22T04:32:51.505Z,3.80
2018-09-22T04:33:51.461Z,4.30
2018-09-22T04:34:51.427Z,3.70
2018-09-22T04:35:51.402Z,4.50
2018-09-22T04:36:51.358Z,3.50
2018-09-22T04:37:51.334Z,4.00
2018-09-22T04:38:51.291Z,4.10
2018-09-22T04:39:51.260Z,4.60
2018-09-22T04:40:51.224Z,3.70
2018-09-22T04:41:51.192Z,4.90
2018-09-22T04:42:51.308Z,4.10
2018-09-22T04:43:51.125Z,3.00
2018-09-22T04:44:51.089Z,3.30
2018-09-22T04:45:51.054Z,3.60
2018-09-22T04:46:51.021Z,4.10
2018-09-22T04:47:50.997Z,4.00
2018-09-22T04:48:50.956Z,4.10
2018-09-22T04:49:50.918Z,3.10
2018-09-22T04:50:50.888Z,3.80
2018-09-22T04:51:50.864Z,3.60
2018-09-22T04:52:50.827Z,3.20
2018-09-22T04:53:50.789Z,3.40
2018-09-22T04:54:50.751Z,3.50
2018-09-22T04:55:50.724Z,3.60
2018-09-22T04:56:50.688Z,3.50
2018-09-22T04:57:50.684Z,3.60
2018-09-22T04:58:50.620Z,4.40
2018-09-22T04:59:50.584Z,3.40
2018-09-22T05:00:50.556Z,3.00
2018-09-22T05:01:50.515Z,3.20
2018-09-22T05:02:50.480Z,2.70
2018-09-22T05:03:50.458Z,3.70
2018-09-22T05:04:50.415Z,3.80
2018-09-22T05:05:50.385Z,3.60
2018-09-22T05:06:50.387Z,3.60
2018-09-22T05:07:50.315Z,3.90
2018-09-22T05:08:50.293Z,3.60
2018-09-22T05:09:50.247Z,3.80
2018-09-22T05:10:50.216Z,3.80
2018-09-22T05:11:50.178Z,3.60
2018-09-22T05:12:50.143Z,3.50
2018-09-22T05:13:50.121Z,3.90
2018-09-22T05:14:50.078Z,3.20
2018-09-22T05:15:50.045Z,3.00
2018-09-22T05:16:50.011Z,3.80
2018-09-22T05:17:49.980Z,3.40
2018-09-22T05:18:49.952Z,3.10
2018-09-22T05:19:49.911Z,3.00
2018-09-22T05:20:49.878Z,4.00
2018-09-22T05:21:49.841Z,3.10
2018-09-22T05:22:49.809Z,4.20
2018-09-22T05:23:49.803Z,3.80
2018-09-22T05:24:49.816Z,3.40
2018-09-22T05:25:49.712Z,3.40
2018-09-22T05:26:49.680Z,4.00
2018-09-22T05:27:49.644Z,3.90
2018-09-22T05:28:49.611Z,3.50
2018-09-22T05:29:49.588Z,3.90
2018-09-22T05:30:49.541Z,3.40
2018-09-22T05:31:49.507Z,2.80
2018-09-22T05:32:49.489Z,4.00
2018-09-22T05:33:49.442Z,3.50
2018-09-22T05:34:49.414Z,4.40
2018-09-22T05:35:49.372Z,3.40
2018-09-22T05:36:49.342Z,3.90
2018-09-22T05:37:49.309Z,3.30
2018-09-22T05:38:49.274Z,3.70
2018-09-22T05:39:49.253Z,2.90
2018-09-22T05:40:49.209Z,3.40
2018-09-22T05:41:49.259Z,3.50
2018-09-22T05:42:49.140Z,2.90
2018-09-22T05:43:49.169Z,2.90
2018-09-22T05:44:49.091Z,3.20
2018-09-22T05:45:49.043Z,3.10
2018-09-22T05:46:49.009Z,3.10
2018-09-22T05:47:48.971Z,3.70
2018-09-22T05:48:48.939Z,3.60
2018-09-22T05:49:49.007Z,3.90
2018-09-22T05:50:48.873Z,3.50
2018-09-22T05:51:48.841Z,3.00
2018-09-22T05:52:48.845Z,3.20
2018-09-22T05:53:48.773Z,3.60
2018-09-22T05:54:48.748Z,3.50
2018-09-22T05:55:48.708Z,3.60
2018-09-22T05:56:48.678Z,3.00
2018-09-22T05:57:48.641Z,2.90
2018-09-22T05:58:48.610Z,3.00
2018-09-22T05:59:48.588Z,3.30
2018-09-22T06:00:48.543Z,3.10
2018-09-22T06:01:48.510Z,3.30
2018-09-22T06:02:48.476Z,4.20
2018-09-22T06:03:48.548Z,3.60
2018-09-22T06:04:48.408Z,3.80
2018-09-22T06:05:48.385Z,3.50
2018-09-22T06:06:48.339Z,3.60
2018-09-22T06:07:48.312Z,3.20
2018-09-22T06:08:48.276Z,3.50
2018-09-22T06:09:48.243Z,3.80
2018-09-22T06:10:48.220Z,2.90
2018-09-22T06:11:48.177Z,3.90
2018-09-22T06:12:48.143Z,4.10
2018-09-22T06:13:48.116Z,3.60
2018-09-22T06:14:48.077Z,4.30
2018-09-22T06:15:48.052Z,3.30
2018-09-22T06:16:48.012Z,3.40
2018-09-22T06:17:47.978Z,3.70
2018-09-22T06:18:47.944Z,3.60
2018-09-22T06:19:47.911Z,3.60
2018-09-22T06:20:47.887Z,3.80
2018-09-22T06:21:47.847Z,3.60
2018-09-22T06:22:47.813Z,3.20
2018-09-22T06:23:47.780Z,3.80
2018-09-22T06:24:47.747Z,4.00
2018-09-22T06:25:47.736Z,3.10
2018-09-22T06:26:47.682Z,4.30
2018-09-22T06:27:47.647Z,3.70
2018-09-22T06:28:47.656Z,3.90
2018-09-22T06:29:47.581Z,4.20
2018-09-22T06:30:47.549Z,3.90
2018-09-22T06:31:47.571Z,3.10
2018-09-22T06:32:47.485Z,3.50
2018-09-22T06:33:47.453Z,4.20
2018-09-22T06:34:47.418Z,4.10
2018-09-22T06:35:47.390Z,3.80
2018-09-22T06:36:47.361Z,3.50
2018-09-22T06:37:47.320Z,3.70
2018-09-22T06:39:47.255Z,3.50
2018-09-22T06:40:47.222Z,3.40
2018-09-22T06:41:47.197Z,3.30
2018-09-22T06:42:47.156Z,3.10
2018-09-22T06:43:47.128Z,3.60
2018-09-22T06:44:47.094Z,3.90
2018-09-22T06:45:47.056Z,4.60
2018-09-22T06:46:47.045Z,3.30
2018-09-22T06:47:46.997Z,4.00
2018-09-22T06:48:46.961Z,3.20
2018-09-22T06:49:46.927Z,3.10
2018-09-22T06:50:46.895Z,3.40
2018-09-22T06:51:46.871Z,3.10
2018-09-22T06:52:46.832Z,2.90
2018-09-22T06:53:46.805Z,3.90
2018-09-22T06:54:46.823Z,3.50
2018-09-22T06:55:46.737Z,4.10
2018-09-22T06:56:46.729Z,2.90
2018-09-22T06:57:46.669Z,3.90
2018-09-22T06:58:46.636Z,3.50
2018-09-22T06:59:46.605Z,3.80
2018-09-22T07:00:46.573Z,3.20
2018-09-22T07:01:46.539Z,3.50
2018-09-22T07:02:46.518Z,3.60
2018-09-22T07:03:46.473Z,3.40
2018-09-22T07:04:46.446Z,3.20
2018-09-22T07:05:46.411Z,4.10
2018-09-22T07:06:46.380Z,3.30
2018-09-22T07:07:46.359Z,3.80
2018-09-22T07:08:46.316Z,3.50
2018-09-22T07:09:46.284Z,3.90
2018-09-22T07:10:46.256Z,2.90
2018-09-22T07:11:46.218Z,3.60
2018-09-22T07:12:46.196Z,3.10
2018-09-22T07:13:46.184Z,3.40
2018-09-22T07:14:46.130Z,3.50
2018-09-22T07:15:46.089Z,3.30
2018-09-22T07:16:46.060Z,3.30
2018-09-22T07:17:46.035Z,3.60
2018-09-22T07:18:45.993Z,3.00
2018-09-22T07:19:45.963Z,2.60
2018-09-22T07:20:45.933Z,3.70
2018-09-22T07:21:45.899Z,3.40
2018-09-22T07:22:45.888Z,3.00
2018-09-22T07:23:45.836Z,3.30
2018-09-22T07:24:45.807Z,3.80
2018-09-22T07:25:45.771Z,4.00
2018-09-22T07:26:45.742Z,3.40
2018-09-22T07:27:45.707Z,4.00
2018-09-22T07:28:45.688Z,3.30
2018-09-22T07:29:45.648Z,4.10
2018-09-22T07:30:45.708Z,3.30
2018-09-22T07:31:45.586Z,3.20
2018-09-22T07:32:45.550Z,2.90
2018-09-22T07:33:45.527Z,3.40
2018-09-22T07:34:45.491Z,3.80
2018-09-22T07:35:45.458Z,3.60
2018-09-22T07:36:45.428Z,4.00
2018-09-22T07:37:45.394Z,3.50
2018-09-22T07:38:45.872Z,3.30
2018-09-22T07:39:45.846Z,4.20
2018-09-22T07:40:45.379Z,3.60
2018-09-22T07:41:45.395Z,3.40
2018-09-22T07:42:45.850Z,3.20
2018-09-22T07:43:45.783Z,3.60
2018-09-22T07:44:45.186Z,3.40
2018-09-22T07:45:45.181Z,3.90
2018-09-22T07:46:45.112Z,2.80
2018-09-22T07:47:45.082Z,3.70
2018-09-22T07:48:45.064Z,3.20
2018-09-22T07:49:45.019Z,3.10
2018-09-22T07:50:44.986Z,3.50
2018-09-22T07:51:44.961Z,3.90
2018-09-22T07:52:44.932Z,4.10
2018-09-22T07:53:44.907Z,3.60
2018-09-22T07:54:44.863Z,2.90
2018-09-22T07:55:44.834Z,3.40
2018-09-22T07:56:44.801Z,3.80
2018-09-22T07:57:44.770Z,3.70
2018-09-22T07:58:44.740Z,3.90
2018-09-22T07:59:44.719Z,3.70
2018-09-22T08:00:44.677Z,2.80
2018-09-22T08:01:44.646Z,3.20
2018-09-22T08:02:44.858Z,3.30
2018-09-22T08:03:44.587Z,3.00
2018-09-22T08:04:44.567Z,3.30
2018-09-22T08:05:44.523Z,4.20
2018-09-22T08:06:44.492Z,3.40
2018-09-22T08:07:44.462Z,3.70
2018-09-22T08:08:44.432Z,3.00
2018-09-22T08:09:44.412Z,3.40
2018-09-22T08:10:44.391Z,4.00
2018-09-22T08:11:44.347Z,3.20
2018-09-22T08:12:44.309Z,3.30
2018-09-22T08:13:44.279Z,3.50
2018-09-22T08:14:44.255Z,3.20
2018-09-22T08:15:44.216Z,3.10
2018-09-22T08:16:44.189Z,3.00
2018-09-22T08:17:44.157Z,3.40
2018-09-22T08:18:44.126Z,3.50
2018-09-22T08:19:44.120Z,3.50
2018-09-22T08:20:44.066Z,3.30
2018-09-22T08:21:44.036Z,2.90
2018-09-22T08:22:44.007Z,3.90
2018-09-22T08:23:43.978Z,3.50
2018-09-22T08:24:43.950Z,3.30
2018-09-22T08:25:43.923Z,3.10
2018-09-22T08:26:44.807Z,3.90
2018-09-22T08:27:43.857Z,3.90
2018-09-22T08:28:43.825Z,4.30
2018-09-22T08:29:43.793Z,3.50
2018-09-22T08:30:43.774Z,3.00
2018-09-22T08:31:43.732Z,3.80
2018-09-22T08:32:43.703Z,3.70
2018-09-22T08:33:43.672Z,3.60
2018-09-22T08:34:43.642Z,3.40
2018-09-22T08:35:43.648Z,2.80
2018-09-22T08:36:43.683Z,3.90
2018-09-22T08:37:43.553Z,4.00
2018-09-22T08:38:43.527Z,4.20
2018-09-22T08:39:43.492Z,3.30
2018-09-22T08:40:43.470Z,4.30
2018-09-22T08:41:43.432Z,3.40
2018-09-22T08:42:43.414Z,3.40
2018-09-22T08:43:43.414Z,3.70
2018-09-22T08:44:43.390Z,3.30
2018-09-22T08:45:43.320Z,4.10
2018-09-22T08:46:43.281Z,3.70
2018-09-22T08:47:43.251Z,3.30
2018-09-22T08:48:43.221Z,3.30
2018-09-22T08:49:43.254Z,3.50
2018-09-22T08:50:43.888Z,4.40
2018-09-22T08:51:43.133Z,4.10
2018-09-22T08:52:43.106Z,3.40
2018-09-22T08:53:43.069Z,3.60
2018-09-22T08:54:43.041Z,3.10
2018-09-22T08:55:43.015Z,3.20
2018-09-22T08:56:42.992Z,4.10
2018-09-22T08:57:43.005Z,3.10
2018-09-22T08:58:42.916Z,3.70
2018-09-22T08:59:42.886Z,4.10
2018-09-22T09:00:42.857Z,3.50
2018-09-22T09:01:42.833Z,4.00
2018-09-22T09:02:42.798Z,3.90
2018-09-22T09:03:42.771Z,3.70
2018-09-22T09:04:42.738Z,3.60
2018-09-22T09:05:42.749Z,3.30
2018-09-22T09:06:42.691Z,3.40
2018-09-22T09:07:42.647Z,3.30
2018-09-22T09:08:42.617Z,3.50
2018-09-22T09:09:42.583Z,3.80
2018-09-22T09:10:42.556Z,3.10
2018-09-22T09:11:42.536Z,3.20
2018-09-22T09:12:42.499Z,3.60
2018-09-22T09:13:42.472Z,3.40
2018-09-22T09:14:42.481Z,3.80
2018-09-22T09:15:42.406Z,3.70
2018-09-22T09:16:42.392Z,3.70
2018-09-22T09:17:42.348Z,3.90
2018-09-22T09:18:42.317Z,3.20
2018-09-22T09:19:42.289Z,3.20
2018-09-22T09:20:42.264Z,3.10
2018-09-22T09:21:42.251Z,3.50
2018-09-22T09:22:42.202Z,3.10
2018-09-22T09:23:42.173Z,3.90
2018-09-22T09:24:42.146Z,3.70
2018-09-22T09:25:42.114Z,3.40
2018-09-22T09:26:42.086Z,3.60
2018-09-22T09:27:42.064Z,3.60
2018-09-22T09:28:42.027Z,3.70
2018-09-22T09:29:41.999Z,3.40
2018-09-22T09:30:41.975Z,3.90
2018-09-22T09:31:41.945Z,3.80
2018-09-22T09:32:41.920Z,3.40
2018-09-22T09:33:41.888Z,4.00
2018-09-22T09:34:41.871Z,3.70
2018-09-22T09:35:41.831Z,4.10
2018-09-22T09:36:41.795Z,3.80
2018-09-22T09:37:41.773Z,4.00
2018-09-22T09:38:41.736Z,3.80
2018-09-22T09:39:41.707Z,3.70
2018-09-22T09:40:41.680Z,3.70
2018-09-22T09:41:41.651Z,3.80
2018-09-22T09:42:41.643Z,3.90
2018-09-22T09:43:41.642Z,3.30
2018-09-22T09:44:41.568Z,4.30
2018-09-22T09:45:41.536Z,4.60
2018-09-22T09:46:41.507Z,4.30
2018-09-22T09:47:41.499Z,3.60
2018-09-22T09:48:41.453Z,4.20
2018-09-22T09:49:41.421Z,3.90
2018-09-22T09:50:41.400Z,3.70
2018-09-22T09:51:41.371Z,3.90
2018-09-22T09:52:41.330Z,4.00
2018-09-22T09:53:41.320Z,3.80
2018-09-22T09:54:41.280Z,3.70
2018-09-22T09:55:41.252Z,3.50
2018-09-22T09:56:41.223Z,4.50
2018-09-22T09:57:41.195Z,4.20
2018-09-22T09:58:41.174Z,3.10
2018-09-22T09:59:41.139Z,4.00
2018-09-22T10:00:41.112Z,3.80
2018-09-22T10:01:41.083Z,3.60
2018-09-22T10:02:41.051Z,4.00
2018-09-22T10:03:41.037Z,3.20
2018-09-22T10:04:40.996Z,3.70
2018-09-22T10:05:40.965Z,3.50
2018-09-22T10:06:40.945Z,3.60
2018-09-22T10:07:40.911Z,4.10
2018-09-22T10:08:40.894Z,3.70
2018-09-22T10:09:40.851Z,3.60
2018-09-22T10:10:40.825Z,4.00
2018-09-22T10:11:40.841Z,4.00
2018-09-22T10:12:40.766Z,3.80
2018-09-22T10:13:40.757Z,3.40
2018-09-22T10:14:40.713Z,2.90
2018-09-22T10:15:40.682Z,3.30
2018-09-22T10:16:40.654Z,2.90
2018-09-22T10:17:40.627Z,2.90
2018-09-22T10:18:40.598Z,3.60
2018-09-22T10:19:41.021Z,2.90
2018-09-22T10:20:40.546Z,2.90
2018-09-22T10:21:40.512Z,2.30
2018-09-22T10:22:40.486Z,3.30
2018-09-22T10:23:40.458Z,2.50
2018-09-22T10:24:40.441Z,2.70
2018-09-22T10:25:40.400Z,3.00
2018-09-22T10:26:41.386Z,3.30
2018-09-22T10:27:40.378Z,2.70
2018-09-22T10:28:40.328Z,3.70
2018-09-22T10:29:40.296Z,3.00
2018-09-22T10:30:40.266Z,3.10
2018-09-22T10:31:40.237Z,2.80
2018-09-22T10:32:40.421Z,3.30
2018-09-22T10:33:40.181Z,3.20
2018-09-22T10:34:40.161Z,3.20
2018-09-22T10:35:40.162Z,3.60
2018-09-22T10:36:40.101Z,2.80
2018-09-22T10:37:40.067Z,3.30
2018-09-22T10:38:40.041Z,2.60
2018-09-22T10:39:40.580Z,2.90
2018-09-22T10:40:39.995Z,3.10
2018-09-22T10:41:40.037Z,2.70
2018-09-22T10:42:39.932Z,3.30
2018-09-22T10:43:39.900Z,3.20
2018-09-22T10:44:39.880Z,2.70
2018-09-22T10:45:39.849Z,2.60
2018-09-22T10:46:39.821Z,2.80
2018-09-22T10:47:39.789Z,2.30
2018-09-22T10:48:39.762Z,2.50
2018-09-22T10:49:39.733Z,2.80
2018-09-22T10:50:39.714Z,2.40
2018-09-22T10:51:39.690Z,2.20
2018-09-22T10:52:39.722Z,2.40
2018-09-22T10:53:39.630Z,2.60
2018-09-22T10:54:39.617Z,1.60
2018-09-22T10:55:39.577Z,3.20
2018-09-22T10:56:39.543Z,2.80
2018-09-22T10:57:39.512Z,2.80
2018-09-22T10:58:39.484Z,2.00
2018-09-22T10:59:39.451Z,2.30
2018-09-22T11:00:39.454Z,2.70
2018-09-22T11:01:39.401Z,2.60
2018-09-22T11:02:39.368Z,3.00
2018-09-22T11:03:39.346Z,2.20
2018-09-22T11:04:39.320Z,2.90
2018-09-22T11:05:39.301Z,2.20
2018-09-22T11:06:39.262Z,2.50
2018-09-22T11:07:39.236Z,2.10
2018-09-22T11:08:39.212Z,2.00
2018-09-22T11:09:39.195Z,2.10
2018-09-22T11:10:39.209Z,1.90
2018-09-22T11:11:39.122Z,2.30
2018-09-22T11:12:39.098Z,2.50
2018-09-22T11:13:39.082Z,2.50
2018-09-22T11:14:39.041Z,2.60
2018-09-22T11:15:39.014Z,2.00
2018-09-22T11:16:38.995Z,2.30
2018-09-22T11:17:38.959Z,2.30
2018-09-22T11:18:38.931Z,2.00
2018-09-22T11:19:38.904Z,2.20
2018-09-22T11:20:38.876Z,2.80
2018-09-22T11:21:38.857Z,1.90
2018-09-22T11:22:38.823Z,2.20
2018-09-22T11:23:38.794Z,2.50
2018-09-22T11:24:38.768Z,2.20
2018-09-22T11:25:38.754Z,2.00
2018-09-22T11:26:38.720Z,1.70
2018-09-22T11:27:38.685Z,2.20
2018-09-22T11:28:38.659Z,2.40
2018-09-22T11:29:38.629Z,2.10
2018-09-22T11:30:38.603Z,2.60
2018-09-22T11:31:38.585Z,2.20
2018-09-22T11:32:38.582Z,1.90
2018-09-22T11:33:38.523Z,2.10
2018-09-22T11:34:38.494Z,2.10
2018-09-22T11:35:38.466Z,2.00
2018-09-22T11:36:38.446Z,2.10
2018-09-22T11:37:38.408Z,1.80
2018-09-22T11:38:38.381Z,1.70
2018-09-22T11:39:38.356Z,2.10
2018-09-22T11:40:38.331Z,1.90
2018-09-22T11:41:38.323Z,2.20
2018-09-22T11:42:38.276Z,1.80
2018-09-22T11:43:38.248Z,2.20
2018-09-22T11:44:38.221Z,1.60
2018-09-22T11:45:38.190Z,1.90
2018-09-22T11:46:38.164Z,1.90
2018-09-22T11:47:38.155Z,1.90
2018-09-22T11:48:38.114Z,2.20
2018-09-22T11:49:38.082Z,2.20
2018-09-22T11:50:38.055Z,1.70
2018-09-22T11:51:38.028Z,1.90
2018-09-22T11:52:38.012Z,1.90
2018-09-22T11:53:37.973Z,2.00
2018-09-22T11:54:38.036Z,1.60
2018-09-22T11:55:37.917Z,1.90
2018-09-22T11:56:37.890Z,1.60
2018-09-22T11:57:37.875Z,1.90
2018-09-22T11:58:37.836Z,1.90
2018-09-22T11:59:37.809Z,2.60
2018-09-22T12:00:37.783Z,2.10
2018-09-22T12:01:37.756Z,1.80
2018-09-22T12:02:37.738Z,1.80
2018-09-22T12:03:37.700Z,2.30
2018-09-22T12:04:37.675Z,2.10
2018-09-22T12:05:37.649Z,1.90
2018-09-22T12:06:37.639Z,1.80
2018-09-22T12:07:37.606Z,1.60
2018-09-22T12:08:37.565Z,2.30
2018-09-22T12:09:37.539Z,2.40
2018-09-22T12:10:37.512Z,2.70
2018-09-22T12:11:37.490Z,1.80
2018-09-22T12:12:37.462Z,2.60
2018-09-22T12:13:37.440Z,2.30
2018-09-22T12:14:37.406Z,2.10
2018-09-22T12:15:37.379Z,1.60
2018-09-22T12:16:37.351Z,2.20
2018-09-22T12:17:37.328Z,1.90
2018-09-22T12:18:37.320Z,1.80
2018-09-22T12:19:37.268Z,1.90
2018-09-22T12:20:37.245Z,1.40
2018-09-22T12:21:37.216Z,2.60
2018-09-22T12:22:37.188Z,1.70
2018-09-22T12:23:37.169Z,2.00
2018-09-22T12:24:37.135Z,1.80
2018-09-22T12:25:37.108Z,2.10
2018-09-22T12:26:37.082Z,2.00
2018-09-22T12:27:37.057Z,2.10
2018-09-22T12:28:37.036Z,1.60
2018-09-22T12:29:36.999Z,2.10
2018-09-22T12:30:36.975Z,2.00
2018-09-22T12:31:36.946Z,1.70
2018-09-22T12:32:36.922Z,2.10
2018-09-22T12:33:36.901Z,1.90
2018-09-22T12:34:36.865Z,2.90
2018-09-22T12:35:36.848Z,2.30
2018-09-22T12:36:36.812Z,2.10
2018-09-22T12:37:36.785Z,2.10
2018-09-22T12:38:36.758Z,1.90
2018-09-22T12:39:36.742Z,1.90
2018-09-22T12:40:36.704Z,1.70
2018-09-22T12:41:36.676Z,2.00
2018-09-22T12:42:36.650Z,1.80
2018-09-22T12:43:36.623Z,2.60
2018-09-22T12:44:36.603Z,2.50
2018-09-22T12:45:36.577Z,1.90
2018-09-22T12:46:36.550Z,2.30
2018-09-22T12:47:36.514Z,2.60
2018-09-22T12:48:36.490Z,1.90
2018-09-22T12:49:36.469Z,2.00
2018-09-22T12:50:36.434Z,1.90
2018-09-22T12:51:36.410Z,2.60
2018-09-22T12:52:36.381Z,1.80
2018-09-22T12:53:36.357Z,2.10
2018-09-22T12:54:36.332Z,2.10
2018-09-22T12:55:36.301Z,2.20
2018-09-22T12:56:36.280Z,2.10
2018-09-22T12:57:36.243Z,2.20
2018-09-22T12:58:36.217Z,1.90
2018-09-22T12:59:36.196Z,1.60
2018-09-22T13:00:36.167Z,2.20
2018-09-22T13:01:36.143Z,1.90
2018-09-22T13:02:36.109Z,1.90
2018-09-22T13:03:36.102Z,1.90
2018-09-22T13:04:36.063Z,2.00
2018-09-22T13:05:36.036Z,2.20
2018-09-22T13:06:36.001Z,2.20
2018-09-22T13:07:35.973Z,1.70
2018-09-22T13:08:35.945Z,1.60
2018-09-22T13:09:35.926Z,1.90
2018-09-22T13:10:35.890Z,2.00
2018-09-22T13:11:35.866Z,1.60
2018-09-22T13:12:35.837Z,1.90
2018-09-22T13:13:35.887Z,1.80
2018-09-22T13:14:35.800Z,1.70
2018-09-22T13:15:35.756Z,1.80
2018-09-22T13:16:35.728Z,1.80
2018-09-22T13:17:35.705Z,2.50
2018-09-22T13:18:35.675Z,2.20